sensor_id;sensor_type;location;lat;lon;timestamp;P1;durP1;ratioP1;P2;durP2;ratioP2
22219;SDS011;11279;48.364;10.904;2023-12-07T00:00:40;28.07;;;17.53;;
22219;SDS011;11279;48.364;10.904;2023-12-07T00:01:40;29.27;;;17.63;;
22219;SDS011;11279;48.364;10.904;2023-12-07T00:02:41;30.67;;;17.57;;
22219;SDS011;11279;48.364;10.904;2023-12-07T00:03:41;27.10;;;17.23;;
22219;SDS011;11279;48.364;10.904;2023-12-07T00:04:41;30.30;;;18.00;;
22219;SDS011;11279;48.364;10.904;2023-12-07T00:05:42;32.83;;;18.93;;
22219;SDS011;11279;48.364;10.904;2023-12-07T00:06:42;29.13;;;17.10;;
22219;SDS011;11279;48.364;10.904;2023-12-07T00:07:43;29.07;;;17.53;;
22219;SDS011;11279;48.364;10.904;2023-12-07T00:08:43;33.20;;;18.37;;
22219;SDS011;11279;48.364;10.904;2023-12-07T00:09:44;32.57;;;19.63;;
22219;SDS011;11279;48.364;10.904;2023-12-07T00:10:44;30.10;;;17.83;;
22219;SDS011;11279;48.364;10.904;2023-12-07T00:11:45;30.27;;;18.57;;
22219;SDS011;11279;48.364;10.904;2023-12-07T00:12:45;28.80;;;17.83;;
22219;SDS011;11279;48.364;10.904;2023-12-07T00:13:46;30.87;;;17.50;;
22219;SDS011;11279;48.364;10.904;2023-12-07T00:14:46;31.57;;;17.97;;
22219;SDS011;11279;48.364;10.904;2023-12-07T00:15:46;28.93;;;17.03;;
22219;SDS011;11279;48.364;10.904;2023-12-07T00:16:47;33.00;;;19.30;;
22219;SDS011;11279;48.364;10.904;2023-12-07T00:17:49;32.10;;;19.27;;
22219;SDS011;11279;48.364;10.904;2023-12-07T00:18:49;30.73;;;16.83;;
22219;SDS011;11279;48.364;10.904;2023-12-07T00:19:50;30.63;;;18.90;;
22219;SDS011;11279;48.364;10.904;2023-12-07T00:20:51;29.60;;;17.38;;
22219;SDS011;11279;48.364;10.904;2023-12-07T00:21:51;27.50;;;17.20;;
22219;SDS011;11279;48.364;10.904;2023-12-07T00:22:52;29.93;;;17.77;;
22219;SDS011;11279;48.364;10.904;2023-12-07T00:23:52;29.60;;;18.00;;
22219;SDS011;11279;48.364;10.904;2023-12-07T00:24:53;29.63;;;17.20;;
22219;SDS011;11279;48.364;10.904;2023-12-07T00:25:53;27.33;;;17.27;;
22219;SDS011;11279;48.364;10.904;2023-12-07T00:26:54;32.43;;;18.90;;
22219;SDS011;11279;48.364;10.904;2023-12-07T00:27:54;28.53;;;18.03;;
22219;SDS011;11279;48.364;10.904;2023-12-07T00:28:55;28.37;;;17.50;;
22219;SDS011;11279;48.364;10.904;2023-12-07T00:29:56;28.37;;;17.73;;
22219;SDS011;11279;48.364;10.904;2023-12-07T00:30:56;32.97;;;18.10;;
22219;SDS011;11279;48.364;10.904;2023-12-07T00:31:57;30.87;;;18.13;;
22219;SDS011;11279;48.364;10.904;2023-12-07T00:32:57;30.17;;;17.93;;
22219;SDS011;11279;48.364;10.904;2023-12-07T00:33:57;31.50;;;17.70;;
22219;SDS011;11279;48.364;10.904;2023-12-07T00:34:58;28.70;;;17.17;;
22219;SDS011;11279;48.364;10.904;2023-12-07T00:35:58;31.47;;;18.20;;
22219;SDS011;11279;48.364;10.904;2023-12-07T00:36:59;26.47;;;17.20;;
22219;SDS011;11279;48.364;10.904;2023-12-07T00:37:59;25.57;;;16.57;;
22219;SDS011;11279;48.364;10.904;2023-12-07T00:39:00;30.10;;;18.03;;
22219;SDS011;11279;48.364;10.904;2023-12-07T00:40:00;29.63;;;18.07;;
22219;SDS011;11279;48.364;10.904;2023-12-07T00:41:02;27.13;;;17.38;;
22219;SDS011;11279;48.364;10.904;2023-12-07T00:42:02;31.33;;;17.83;;
22219;SDS011;11279;48.364;10.904;2023-12-07T00:43:03;29.53;;;17.83;;
22219;SDS011;11279;48.364;10.904;2023-12-07T00:44:03;30.47;;;18.40;;
22219;SDS011;11279;48.364;10.904;2023-12-07T00:45:05;28.00;;;17.00;;
22219;SDS011;11279;48.364;10.904;2023-12-07T00:46:08;27.83;;;17.20;;
22219;SDS011;11279;48.364;10.904;2023-12-07T00:47:09;29.25;;;18.27;;
22219;SDS011;11279;48.364;10.904;2023-12-07T00:48:09;29.87;;;17.83;;
22219;SDS011;11279;48.364;10.904;2023-12-07T00:49:10;28.00;;;17.70;;
22219;SDS011;11279;48.364;10.904;2023-12-07T00:50:13;28.83;;;17.67;;
22219;SDS011;11279;48.364;10.904;2023-12-07T00:51:14;25.63;;;16.17;;
22219;SDS011;11279;48.364;10.904;2023-12-07T00:52:15;26.93;;;16.70;;
22219;SDS011;11279;48.364;10.904;2023-12-07T00:53:15;28.00;;;17.13;;
22219;SDS011;11279;48.364;10.904;2023-12-07T00:54:16;26.47;;;17.13;;
22219;SDS011;11279;48.364;10.904;2023-12-07T00:55:16;30.23;;;17.10;;
22219;SDS011;11279;48.364;10.904;2023-12-07T00:56:17;28.50;;;16.40;;
22219;SDS011;11279;48.364;10.904;2023-12-07T00:57:17;28.00;;;17.43;;
22219;SDS011;11279;48.364;10.904;2023-12-07T00:58:18;27.63;;;17.37;;
22219;SDS011;11279;48.364;10.904;2023-12-07T00:59:18;27.23;;;16.87;;
22219;SDS011;11279;48.364;10.904;2023-12-07T01:00:18;28.77;;;17.40;;
22219;SDS011;11279;48.364;10.904;2023-12-07T01:01:19;30.03;;;17.67;;
22219;SDS011;11279;48.364;10.904;2023-12-07T01:02:19;29.17;;;17.43;;
22219;SDS011;11279;48.364;10.904;2023-12-07T01:03:20;29.27;;;17.80;;
22219;SDS011;11279;48.364;10.904;2023-12-07T01:04:20;26.83;;;17.27;;
22219;SDS011;11279;48.364;10.904;2023-12-07T01:05:21;24.97;;;16.17;;
22219;SDS011;11279;48.364;10.904;2023-12-07T01:06:21;26.20;;;16.83;;
22219;SDS011;11279;48.364;10.904;2023-12-07T01:07:21;29.73;;;18.23;;
22219;SDS011;11279;48.364;10.904;2023-12-07T01:08:22;27.37;;;16.87;;
22219;SDS011;11279;48.364;10.904;2023-12-07T01:09:22;25.40;;;16.60;;
22219;SDS011;11279;48.364;10.904;2023-12-07T01:10:23;27.83;;;17.43;;
22219;SDS011;11279;48.364;10.904;2023-12-07T01:11:23;27.80;;;17.27;;
22219;SDS011;11279;48.364;10.904;2023-12-07T01:12:25;25.52;;;15.43;;
22219;SDS011;11279;48.364;10.904;2023-12-07T01:13:25;29.37;;;16.90;;
22219;SDS011;11279;48.364;10.904;2023-12-07T01:14:26;26.87;;;16.37;;
22219;SDS011;11279;48.364;10.904;2023-12-07T01:15:26;26.20;;;15.93;;
22219;SDS011;11279;48.364;10.904;2023-12-07T01:16:27;26.03;;;15.53;;
22219;SDS011;11279;48.364;10.904;2023-12-07T01:17:27;24.07;;;15.40;;
22219;SDS011;11279;48.364;10.904;2023-12-07T01:18:28;25.87;;;15.10;;
22219;SDS011;11279;48.364;10.904;2023-12-07T01:19:28;26.63;;;16.67;;
22219;SDS011;11279;48.364;10.904;2023-12-07T01:20:28;25.27;;;15.73;;
22219;SDS011;11279;48.364;10.904;2023-12-07T01:21:29;22.37;;;15.20;;
22219;SDS011;11279;48.364;10.904;2023-12-07T01:22:29;24.20;;;15.33;;
22219;SDS011;11279;48.364;10.904;2023-12-07T01:23:30;25.13;;;16.57;;
22219;SDS011;11279;48.364;10.904;2023-12-07T01:24:30;23.97;;;15.10;;
22219;SDS011;11279;48.364;10.904;2023-12-07T01:25:31;23.73;;;15.13;;
22219;SDS011;11279;48.364;10.904;2023-12-07T01:26:31;26.50;;;15.83;;
22219;SDS011;11279;48.364;10.904;2023-12-07T01:27:32;25.03;;;15.67;;
22219;SDS011;11279;48.364;10.904;2023-12-07T01:28:32;25.60;;;16.57;;
22219;SDS011;11279;48.364;10.904;2023-12-07T01:29:34;24.42;;;15.57;;
22219;SDS011;11279;48.364;10.904;2023-12-07T01:30:34;27.50;;;16.77;;
22219;SDS011;11279;48.364;10.904;2023-12-07T01:31:36;25.92;;;14.75;;
22219;SDS011;11279;48.364;10.904;2023-12-07T01:32:36;25.87;;;15.90;;
22219;SDS011;11279;48.364;10.904;2023-12-07T01:33:37;24.87;;;15.83;;
22219;SDS011;11279;48.364;10.904;2023-12-07T01:34:37;25.87;;;15.57;;
22219;SDS011;11279;48.364;10.904;2023-12-07T01:35:38;23.47;;;14.93;;
22219;SDS011;11279;48.364;10.904;2023-12-07T01:36:38;24.33;;;14.80;;
22219;SDS011;11279;48.364;10.904;2023-12-07T01:37:38;25.70;;;15.40;;
22219;SDS011;11279;48.364;10.904;2023-12-07T01:38:39;23.53;;;15.10;;
22219;SDS011;11279;48.364;10.904;2023-12-07T01:39:41;23.83;;;14.67;;
22219;SDS011;11279;48.364;10.904;2023-12-07T01:40:41;25.88;;;15.25;;
22219;SDS011;11279;48.364;10.904;2023-12-07T01:41:42;23.67;;;15.33;;
22219;SDS011;11279;48.364;10.904;2023-12-07T01:42:49;24.90;;;15.90;;
22219;SDS011;11279;48.364;10.904;2023-12-07T01:43:51;23.65;;;15.95;;
22219;SDS011;11279;48.364;10.904;2023-12-07T01:44:51;23.10;;;15.13;;
22219;SDS011;11279;48.364;10.904;2023-12-07T01:45:52;23.53;;;14.07;;
22219;SDS011;11279;48.364;10.904;2023-12-07T01:46:56;27.33;;;15.98;;
22219;SDS011;11279;48.364;10.904;2023-12-07T01:47:56;25.43;;;15.33;;
22219;SDS011;11279;48.364;10.904;2023-12-07T01:48:58;24.38;;;15.55;;
22219;SDS011;11279;48.364;10.904;2023-12-07T01:49:59;24.02;;;15.45;;
22219;SDS011;11279;48.364;10.904;2023-12-07T01:51:00;24.73;;;14.73;;
22219;SDS011;11279;48.364;10.904;2023-12-07T01:52:01;24.90;;;15.43;;
22219;SDS011;11279;48.364;10.904;2023-12-07T01:53:02;24.38;;;14.55;;
22219;SDS011;11279;48.364;10.904;2023-12-07T01:54:04;23.50;;;14.68;;
22219;SDS011;11279;48.364;10.904;2023-12-07T01:55:04;25.33;;;15.33;;
22219;SDS011;11279;48.364;10.904;2023-12-07T01:56:06;22.98;;;14.27;;
22219;SDS011;11279;48.364;10.904;2023-12-07T01:57:08;23.10;;;14.43;;
22219;SDS011;11279;48.364;10.904;2023-12-07T01:58:08;24.03;;;14.90;;
22219;SDS011;11279;48.364;10.904;2023-12-07T01:59:10;24.65;;;15.20;;
22219;SDS011;11279;48.364;10.904;2023-12-07T02:00:13;23.08;;;14.50;;
22219;SDS011;11279;48.364;10.904;2023-12-07T02:01:15;21.25;;;13.60;;
22219;SDS011;11279;48.364;10.904;2023-12-07T02:02:15;21.73;;;14.10;;
22219;SDS011;11279;48.364;10.904;2023-12-07T02:03:16;23.70;;;14.30;;
22219;SDS011;11279;48.364;10.904;2023-12-07T02:04:17;22.58;;;14.05;;
22219;SDS011;11279;48.364;10.904;2023-12-07T02:05:17;21.80;;;13.57;;
22219;SDS011;11279;48.364;10.904;2023-12-07T02:06:18;24.57;;;14.67;;
22219;SDS011;11279;48.364;10.904;2023-12-07T02:07:18;23.20;;;13.90;;
22219;SDS011;11279;48.364;10.904;2023-12-07T02:08:19;21.10;;;13.32;;
22219;SDS011;11279;48.364;10.904;2023-12-07T02:09:20;22.93;;;14.43;;
22219;SDS011;11279;48.364;10.904;2023-12-07T02:10:20;23.50;;;15.47;;
22219;SDS011;11279;48.364;10.904;2023-12-07T02:11:20;27.20;;;14.20;;
22219;SDS011;11279;48.364;10.904;2023-12-07T02:12:21;22.30;;;13.60;;
22219;SDS011;11279;48.364;10.904;2023-12-07T02:13:21;20.83;;;13.70;;
22219;SDS011;11279;48.364;10.904;2023-12-07T02:14:22;20.80;;;12.60;;
22219;SDS011;11279;48.364;10.904;2023-12-07T02:15:22;20.60;;;13.33;;
22219;SDS011;11279;48.364;10.904;2023-12-07T02:16:39;21.43;;;13.13;;
22219;SDS011;11279;48.364;10.904;2023-12-07T02:17:54;20.00;;;12.82;;
22219;SDS011;11279;48.364;10.904;2023-12-07T02:22:08;20.45;;;12.65;;
22219;SDS011;11279;48.364;10.904;2023-12-07T02:23:11;20.67;;;12.82;;
22219;SDS011;11279;48.364;10.904;2023-12-07T02:24:15;20.20;;;13.27;;
22219;SDS011;11279;48.364;10.904;2023-12-07T02:25:24;20.88;;;12.85;;
22219;SDS011;11279;48.364;10.904;2023-12-07T02:26:38;19.70;;;12.40;;
22219;SDS011;11279;48.364;10.904;2023-12-07T02:27:40;20.75;;;12.85;;
22219;SDS011;11279;48.364;10.904;2023-12-07T02:28:42;20.30;;;11.95;;
22219;SDS011;11279;48.364;10.904;2023-12-07T02:29:42;21.50;;;12.40;;
22219;SDS011;11279;48.364;10.904;2023-12-07T02:30:43;20.17;;;11.80;;
22219;SDS011;11279;48.364;10.904;2023-12-07T02:31:43;21.47;;;13.00;;
22219;SDS011;11279;48.364;10.904;2023-12-07T02:32:44;19.50;;;12.13;;
22219;SDS011;11279;48.364;10.904;2023-12-07T02:33:45;19.05;;;12.07;;
22219;SDS011;11279;48.364;10.904;2023-12-07T02:34:45;20.57;;;11.80;;
22219;SDS011;11279;48.364;10.904;2023-12-07T02:35:46;21.13;;;12.17;;
22219;SDS011;11279;48.364;10.904;2023-12-07T02:36:46;19.03;;;11.70;;
22219;SDS011;11279;48.364;10.904;2023-12-07T02:37:49;18.77;;;11.98;;
22219;SDS011;11279;48.364;10.904;2023-12-07T02:38:50;19.10;;;11.52;;
22219;SDS011;11279;48.364;10.904;2023-12-07T02:39:51;20.17;;;11.65;;
22219;SDS011;11279;48.364;10.904;2023-12-07T02:40:53;17.85;;;11.02;;
22219;SDS011;11279;48.364;10.904;2023-12-07T02:41:54;18.15;;;11.65;;
22219;SDS011;11279;48.364;10.904;2023-12-07T02:42:56;16.42;;;10.40;;
22219;SDS011;11279;48.364;10.904;2023-12-07T02:43:57;16.05;;;10.50;;
22219;SDS011;11279;48.364;10.904;2023-12-07T02:44:58;17.83;;;11.17;;
22219;SDS011;11279;48.364;10.904;2023-12-07T02:45:59;19.57;;;11.10;;
22219;SDS011;11279;48.364;10.904;2023-12-07T02:46:59;21.07;;;11.53;;
22219;SDS011;11279;48.364;10.904;2023-12-07T02:48:00;17.93;;;11.60;;
22219;SDS011;11279;48.364;10.904;2023-12-07T02:49:00;17.90;;;10.43;;
22219;SDS011;11279;48.364;10.904;2023-12-07T02:50:01;18.00;;;11.20;;
22219;SDS011;11279;48.364;10.904;2023-12-07T02:51:02;20.33;;;11.82;;
22219;SDS011;11279;48.364;10.904;2023-12-07T02:52:03;19.00;;;11.50;;
22219;SDS011;11279;48.364;10.904;2023-12-07T02:53:04;19.17;;;11.60;;
22219;SDS011;11279;48.364;10.904;2023-12-07T02:54:04;19.57;;;11.60;;
22219;SDS011;11279;48.364;10.904;2023-12-07T02:55:05;21.30;;;12.50;;
22219;SDS011;11279;48.364;10.904;2023-12-07T02:56:06;20.70;;;12.48;;
22219;SDS011;11279;48.364;10.904;2023-12-07T02:57:07;20.83;;;12.55;;
22219;SDS011;11279;48.364;10.904;2023-12-07T02:58:07;20.17;;;11.83;;
22219;SDS011;11279;48.364;10.904;2023-12-07T02:59:07;20.33;;;12.30;;
22219;SDS011;11279;48.364;10.904;2023-12-07T03:00:08;19.17;;;11.40;;
22219;SDS011;11279;48.364;10.904;2023-12-07T03:01:10;20.73;;;12.55;;
22219;SDS011;11279;48.364;10.904;2023-12-07T03:02:10;21.03;;;12.37;;
22219;SDS011;11279;48.364;10.904;2023-12-07T03:03:10;21.57;;;12.27;;
22219;SDS011;11279;48.364;10.904;2023-12-07T03:04:11;21.33;;;12.17;;
22219;SDS011;11279;48.364;10.904;2023-12-07T03:05:11;23.57;;;11.90;;
22219;SDS011;11279;48.364;10.904;2023-12-07T03:06:12;21.37;;;12.40;;
22219;SDS011;11279;48.364;10.904;2023-12-07T03:07:12;20.03;;;13.03;;
22219;SDS011;11279;48.364;10.904;2023-12-07T03:08:13;18.87;;;12.40;;
22219;SDS011;11279;48.364;10.904;2023-12-07T03:09:13;18.00;;;11.23;;
22219;SDS011;11279;48.364;10.904;2023-12-07T03:10:14;20.57;;;12.30;;
22219;SDS011;11279;48.364;10.904;2023-12-07T03:11:14;20.60;;;12.63;;
22219;SDS011;11279;48.364;10.904;2023-12-07T03:12:15;19.97;;;12.60;;
22219;SDS011;11279;48.364;10.904;2023-12-07T03:13:15;20.33;;;12.87;;
22219;SDS011;11279;48.364;10.904;2023-12-07T03:14:15;22.40;;;12.03;;
22219;SDS011;11279;48.364;10.904;2023-12-07T03:15:16;22.83;;;12.43;;
22219;SDS011;11279;48.364;10.904;2023-12-07T03:16:16;20.57;;;12.10;;
22219;SDS011;11279;48.364;10.904;2023-12-07T03:17:17;19.50;;;12.20;;
22219;SDS011;11279;48.364;10.904;2023-12-07T03:18:17;20.00;;;12.33;;
22219;SDS011;11279;48.364;10.904;2023-12-07T03:19:17;19.77;;;12.40;;
22219;SDS011;11279;48.364;10.904;2023-12-07T03:20:18;21.43;;;12.17;;
22219;SDS011;11279;48.364;10.904;2023-12-07T03:21:19;23.10;;;13.00;;
22219;SDS011;11279;48.364;10.904;2023-12-07T03:22:19;19.90;;;11.93;;
22219;SDS011;11279;48.364;10.904;2023-12-07T03:23:20;19.63;;;11.93;;
22219;SDS011;11279;48.364;10.904;2023-12-07T03:24:20;21.47;;;12.43;;
22219;SDS011;11279;48.364;10.904;2023-12-07T03:25:21;21.73;;;12.47;;
22219;SDS011;11279;48.364;10.904;2023-12-07T03:26:21;19.50;;;12.63;;
22219;SDS011;11279;48.364;10.904;2023-12-07T03:27:22;21.43;;;12.50;;
22219;SDS011;11279;48.364;10.904;2023-12-07T03:28:22;21.13;;;13.00;;
22219;SDS011;11279;48.364;10.904;2023-12-07T03:29:22;23.30;;;12.73;;
22219;SDS011;11279;48.364;10.904;2023-12-07T03:30:23;21.40;;;13.20;;
22219;SDS011;11279;48.364;10.904;2023-12-07T03:31:23;20.63;;;13.33;;
22219;SDS011;11279;48.364;10.904;2023-12-07T03:32:24;20.07;;;12.60;;
22219;SDS011;11279;48.364;10.904;2023-12-07T03:33:24;22.03;;;12.90;;
22219;SDS011;11279;48.364;10.904;2023-12-07T03:34:24;22.93;;;13.60;;
22219;SDS011;11279;48.364;10.904;2023-12-07T03:35:25;21.60;;;12.77;;
22219;SDS011;11279;48.364;10.904;2023-12-07T03:36:25;21.93;;;12.67;;
22219;SDS011;11279;48.364;10.904;2023-12-07T03:37:26;23.43;;;13.77;;
22219;SDS011;11279;48.364;10.904;2023-12-07T03:38:26;23.83;;;13.70;;
22219;SDS011;11279;48.364;10.904;2023-12-07T03:39:27;21.80;;;13.80;;
22219;SDS011;11279;48.364;10.904;2023-12-07T03:40:29;21.05;;;13.65;;
22219;SDS011;11279;48.364;10.904;2023-12-07T03:41:30;26.67;;;13.60;;
22219;SDS011;11279;48.364;10.904;2023-12-07T03:42:30;22.10;;;13.10;;
22219;SDS011;11279;48.364;10.904;2023-12-07T03:43:30;22.17;;;12.97;;
22219;SDS011;11279;48.364;10.904;2023-12-07T03:44:31;22.37;;;13.47;;
22219;SDS011;11279;48.364;10.904;2023-12-07T03:45:31;19.87;;;12.67;;
22219;SDS011;11279;48.364;10.904;2023-12-07T03:46:32;20.43;;;12.47;;
22219;SDS011;11279;48.364;10.904;2023-12-07T03:47:32;21.23;;;13.27;;
22219;SDS011;11279;48.364;10.904;2023-12-07T03:48:33;20.50;;;12.67;;
22219;SDS011;11279;48.364;10.904;2023-12-07T03:49:34;22.90;;;12.73;;
22219;SDS011;11279;48.364;10.904;2023-12-07T03:50:34;21.50;;;13.10;;
22219;SDS011;11279;48.364;10.904;2023-12-07T03:51:34;19.70;;;11.93;;
22219;SDS011;11279;48.364;10.904;2023-12-07T03:52:36;20.75;;;12.30;;
22219;SDS011;11279;48.364;10.904;2023-12-07T03:53:37;22.60;;;14.07;;
22219;SDS011;11279;48.364;10.904;2023-12-07T03:54:37;22.70;;;13.20;;
22219;SDS011;11279;48.364;10.904;2023-12-07T03:55:38;20.37;;;12.07;;
22219;SDS011;11279;48.364;10.904;2023-12-07T03:56:38;20.77;;;12.77;;
22219;SDS011;11279;48.364;10.904;2023-12-07T03:57:40;19.83;;;11.93;;
22219;SDS011;11279;48.364;10.904;2023-12-07T03:58:41;24.30;;;13.57;;
22219;SDS011;11279;48.364;10.904;2023-12-07T03:59:41;25.80;;;12.87;;
22219;SDS011;11279;48.364;10.904;2023-12-07T04:00:42;21.67;;;13.10;;
22219;SDS011;11279;48.364;10.904;2023-12-07T04:01:42;21.03;;;13.37;;
22219;SDS011;11279;48.364;10.904;2023-12-07T04:02:43;19.73;;;12.17;;
22219;SDS011;11279;48.364;10.904;2023-12-07T04:03:43;22.20;;;13.30;;
22219;SDS011;11279;48.364;10.904;2023-12-07T04:04:44;22.50;;;13.07;;
22219;SDS011;11279;48.364;10.904;2023-12-07T04:05:44;22.13;;;13.37;;
22219;SDS011;11279;48.364;10.904;2023-12-07T04:06:44;22.07;;;12.70;;
22219;SDS011;11279;48.364;10.904;2023-12-07T04:07:45;22.20;;;13.20;;
22219;SDS011;11279;48.364;10.904;2023-12-07T04:08:45;23.53;;;12.97;;
22219;SDS011;11279;48.364;10.904;2023-12-07T04:09:46;21.70;;;13.43;;
22219;SDS011;11279;48.364;10.904;2023-12-07T04:10:46;29.03;;;13.07;;
22219;SDS011;11279;48.364;10.904;2023-12-07T04:11:47;21.00;;;12.87;;
22219;SDS011;11279;48.364;10.904;2023-12-07T04:12:47;24.10;;;13.10;;
22219;SDS011;11279;48.364;10.904;2023-12-07T04:13:48;22.43;;;12.80;;
22219;SDS011;11279;48.364;10.904;2023-12-07T04:14:51;21.03;;;12.20;;
22219;SDS011;11279;48.364;10.904;2023-12-07T04:15:52;24.92;;;13.90;;
22219;SDS011;11279;48.364;10.904;2023-12-07T04:16:52;20.87;;;12.47;;
22219;SDS011;11279;48.364;10.904;2023-12-07T04:17:53;22.00;;;13.63;;
22219;SDS011;11279;48.364;10.904;2023-12-07T04:18:53;22.40;;;12.73;;
22219;SDS011;11279;48.364;10.904;2023-12-07T04:19:54;23.00;;;12.90;;
22219;SDS011;11279;48.364;10.904;2023-12-07T04:20:54;22.20;;;13.37;;
22219;SDS011;11279;48.364;10.904;2023-12-07T04:21:54;22.37;;;13.20;;
22219;SDS011;11279;48.364;10.904;2023-12-07T04:22:55;21.97;;;12.47;;
22219;SDS011;11279;48.364;10.904;2023-12-07T04:23:55;27.07;;;13.77;;
22219;SDS011;11279;48.364;10.904;2023-12-07T04:24:56;19.77;;;12.50;;
22219;SDS011;11279;48.364;10.904;2023-12-07T04:25:56;22.37;;;13.47;;
22219;SDS011;11279;48.364;10.904;2023-12-07T04:26:56;20.10;;;12.47;;
22219;SDS011;11279;48.364;10.904;2023-12-07T04:27:58;23.40;;;13.33;;
22219;SDS011;11279;48.364;10.904;2023-12-07T04:28:59;21.42;;;13.20;;
22219;SDS011;11279;48.364;10.904;2023-12-07T04:29:59;22.60;;;12.97;;
22219;SDS011;11279;48.364;10.904;2023-12-07T04:31:00;22.77;;;12.97;;
22219;SDS011;11279;48.364;10.904;2023-12-07T04:32:00;22.07;;;13.53;;
22219;SDS011;11279;48.364;10.904;2023-12-07T04:33:00;22.10;;;12.33;;
22219;SDS011;11279;48.364;10.904;2023-12-07T04:34:01;24.80;;;13.70;;
22219;SDS011;11279;48.364;10.904;2023-12-07T04:35:02;22.20;;;13.47;;
22219;SDS011;11279;48.364;10.904;2023-12-07T04:36:02;22.20;;;12.93;;
22219;SDS011;11279;48.364;10.904;2023-12-07T04:37:04;21.23;;;12.40;;
22219;SDS011;11279;48.364;10.904;2023-12-07T04:38:05;21.40;;;12.37;;
22219;SDS011;11279;48.364;10.904;2023-12-07T04:39:05;22.37;;;12.93;;
22219;SDS011;11279;48.364;10.904;2023-12-07T04:40:06;22.63;;;13.20;;
22219;SDS011;11279;48.364;10.904;2023-12-07T04:41:07;22.95;;;12.60;;
22219;SDS011;11279;48.364;10.904;2023-12-07T04:42:07;25.17;;;14.50;;
22219;SDS011;11279;48.364;10.904;2023-12-07T04:43:08;19.97;;;11.53;;
22219;SDS011;11279;48.364;10.904;2023-12-07T04:44:08;24.03;;;12.93;;
22219;SDS011;11279;48.364;10.904;2023-12-07T04:45:09;25.70;;;14.43;;
22219;SDS011;11279;48.364;10.904;2023-12-07T04:46:09;25.67;;;14.27;;
22219;SDS011;11279;48.364;10.904;2023-12-07T04:47:10;23.73;;;13.27;;
22219;SDS011;11279;48.364;10.904;2023-12-07T04:48:10;25.60;;;14.33;;
22219;SDS011;11279;48.364;10.904;2023-12-07T04:49:11;21.90;;;13.27;;
22219;SDS011;11279;48.364;10.904;2023-12-07T04:50:11;21.07;;;13.27;;
22219;SDS011;11279;48.364;10.904;2023-12-07T04:51:12;24.30;;;13.57;;
22219;SDS011;11279;48.364;10.904;2023-12-07T04:52:12;23.63;;;13.77;;
22219;SDS011;11279;48.364;10.904;2023-12-07T04:53:13;21.73;;;13.10;;
22219;SDS011;11279;48.364;10.904;2023-12-07T04:54:14;25.60;;;13.97;;
22219;SDS011;11279;48.364;10.904;2023-12-07T04:55:17;23.83;;;13.93;;
22219;SDS011;11279;48.364;10.904;2023-12-07T04:56:17;24.63;;;13.20;;
22219;SDS011;11279;48.364;10.904;2023-12-07T04:57:17;20.43;;;13.07;;
22219;SDS011;11279;48.364;10.904;2023-12-07T04:58:18;24.17;;;14.23;;
22219;SDS011;11279;48.364;10.904;2023-12-07T04:59:18;23.70;;;13.53;;
22219;SDS011;11279;48.364;10.904;2023-12-07T05:00:19;24.37;;;14.07;;
22219;SDS011;11279;48.364;10.904;2023-12-07T05:01:20;22.73;;;12.83;;
22219;SDS011;11279;48.364;10.904;2023-12-07T05:02:21;21.80;;;12.83;;
22219;SDS011;11279;48.364;10.904;2023-12-07T05:03:21;24.83;;;14.27;;
22219;SDS011;11279;48.364;10.904;2023-12-07T05:04:22;24.47;;;14.23;;
22219;SDS011;11279;48.364;10.904;2023-12-07T05:05:22;25.97;;;13.60;;
22219;SDS011;11279;48.364;10.904;2023-12-07T05:06:24;23.55;;;14.43;;
22219;SDS011;11279;48.364;10.904;2023-12-07T05:07:25;22.93;;;13.83;;
22219;SDS011;11279;48.364;10.904;2023-12-07T05:08:25;25.13;;;13.63;;
22219;SDS011;11279;48.364;10.904;2023-12-07T05:09:26;25.50;;;15.00;;
22219;SDS011;11279;48.364;10.904;2023-12-07T05:10:26;24.67;;;14.43;;
22219;SDS011;11279;48.364;10.904;2023-12-07T05:11:26;24.80;;;14.73;;
22219;SDS011;11279;48.364;10.904;2023-12-07T05:12:27;26.20;;;15.77;;
22219;SDS011;11279;48.364;10.904;2023-12-07T05:13:27;23.33;;;14.17;;
22219;SDS011;11279;48.364;10.904;2023-12-07T05:14:28;23.83;;;13.60;;
22219;SDS011;11279;48.364;10.904;2023-12-07T05:15:28;23.70;;;14.43;;
22219;SDS011;11279;48.364;10.904;2023-12-07T05:16:29;27.00;;;15.30;;
22219;SDS011;11279;48.364;10.904;2023-12-07T05:17:29;27.13;;;15.00;;
22219;SDS011;11279;48.364;10.904;2023-12-07T05:18:30;25.47;;;14.90;;
22219;SDS011;11279;48.364;10.904;2023-12-07T05:19:30;26.40;;;14.47;;
22219;SDS011;11279;48.364;10.904;2023-12-07T05:20:31;25.63;;;15.20;;
22219;SDS011;11279;48.364;10.904;2023-12-07T05:21:31;26.83;;;15.63;;
22219;SDS011;11279;48.364;10.904;2023-12-07T05:22:32;27.13;;;15.20;;
22219;SDS011;11279;48.364;10.904;2023-12-07T05:23:32;27.90;;;16.43;;
22219;SDS011;11279;48.364;10.904;2023-12-07T05:24:34;24.13;;;15.00;;
22219;SDS011;11279;48.364;10.904;2023-12-07T05:25:35;23.73;;;14.07;;
22219;SDS011;11279;48.364;10.904;2023-12-07T05:26:35;26.53;;;15.10;;
22219;SDS011;11279;48.364;10.904;2023-12-07T05:27:36;27.57;;;15.60;;
22219;SDS011;11279;48.364;10.904;2023-12-07T05:28:37;24.52;;;15.63;;
22219;SDS011;11279;48.364;10.904;2023-12-07T05:29:38;25.45;;;14.52;;
22219;SDS011;11279;48.364;10.904;2023-12-07T05:30:38;28.20;;;15.90;;
22219;SDS011;11279;48.364;10.904;2023-12-07T05:31:39;28.53;;;16.43;;
22219;SDS011;11279;48.364;10.904;2023-12-07T05:32:40;27.88;;;16.08;;
22219;SDS011;11279;48.364;10.904;2023-12-07T05:33:40;29.30;;;16.40;;
22219;SDS011;11279;48.364;10.904;2023-12-07T05:34:40;27.30;;;15.40;;
22219;SDS011;11279;48.364;10.904;2023-12-07T05:35:42;31.73;;;17.98;;
22219;SDS011;11279;48.364;10.904;2023-12-07T05:36:42;30.53;;;16.07;;
22219;SDS011;11279;48.364;10.904;2023-12-07T05:37:42;29.67;;;16.20;;
22219;SDS011;11279;48.364;10.904;2023-12-07T05:38:43;33.03;;;16.77;;
22219;SDS011;11279;48.364;10.904;2023-12-07T05:39:43;31.73;;;17.67;;
22219;SDS011;11279;48.364;10.904;2023-12-07T05:40:44;30.43;;;16.43;;
22219;SDS011;11279;48.364;10.904;2023-12-07T05:41:44;29.77;;;16.73;;
22219;SDS011;11279;48.364;10.904;2023-12-07T05:42:49;30.40;;;17.08;;
22219;SDS011;11279;48.364;10.904;2023-12-07T05:43:51;31.45;;;17.30;;
22219;SDS011;11279;48.364;10.904;2023-12-07T05:44:52;30.52;;;16.35;;
22219;SDS011;11279;48.364;10.904;2023-12-07T05:45:53;34.47;;;17.70;;
22219;SDS011;11279;48.364;10.904;2023-12-07T05:46:53;26.13;;;16.07;;
22219;SDS011;11279;48.364;10.904;2023-12-07T05:47:54;28.05;;;16.75;;
22219;SDS011;11279;48.364;10.904;2023-12-07T05:48:55;31.60;;;17.57;;
22219;SDS011;11279;48.364;10.904;2023-12-07T05:49:55;31.20;;;18.63;;
22219;SDS011;11279;48.364;10.904;2023-12-07T05:50:58;29.50;;;17.67;;
22219;SDS011;11279;48.364;10.904;2023-12-07T05:51:58;28.80;;;16.97;;
22219;SDS011;11279;48.364;10.904;2023-12-07T05:52:59;33.60;;;17.67;;
22219;SDS011;11279;48.364;10.904;2023-12-07T05:53:59;27.10;;;16.30;;